Accueil
METAR-TAF:

METAR-TAF

Aéroports :

Midway, États-Unis

latitude: 28-13N, longitude: 177-22W, altitude: 4 m

Observation

Le bulletin a été fait il y a 58 minutes, à 09:56 UTC
Vent 16 kt de est
Température 24°C
Humidité 83%
Pression 1021 hPa
Visibilité: 16.1 km
Nuages épars à une hauteur de 2000 ft

METAR: PMDY 220956Z AUTO 08016KT 10SM SCT020 24/21 A3016 RMK AO2 SLP211 T02390211

Heure: 00:54 (10:54 UTC)

Prévision

Le bulletin a été fait il y a 2 heures et 48 minutes, à 08:06 UTC
Prévision valable du 22 à 08 UTC au 23 à 06 UTC
Vent 15 kt de est/nord-est
Visibilité: 10 km
Nuages épars à une hauteur de 2000 ft
Nuages fragmentés à une hauteur de 6000 ft

TAF: PMDY 220806Z 2208/2306 07015KT P6SM SCT020 BKN060

Observations et prévisions météorologiques de plus de 4000 aéroports (messages METAR et TAF).

Les stations disponibles sont représentées par des disques jaunes et rouges sur la carte.

Passer la souris dessus pour voir le nom de la station.

Cliquer dessus pour voir les observations et prévisions météorologiques.

Pour changer de carte: cliquez sur les boutons verts avec une croix noire pour zoomer, sur le bouton vert avec un tiret pour effectuer un zoom arrière, ou sur les flèches vertes pour les cartes adjacentes.


METAR-TAF: